CheckWX is a tool to help pilots better visualize weather data.  It is not intended as a substitute for an official pre-flight weather briefing.

02:54:18 UTC

KIMM METAR
Immokalee Regional Airport
Immokalee, Florida, USA
Current

19 mins ago

KIMM 240235Z AUTO 10004KT 10SM BKN048 16/13 A3019 RMK AO2
Observed
Mar-24 @ 02:35 UTC
Wind
  • 100° at 4 KTS
Visibility
10 SM
Flight Rules
VFR
Cloud Levels
  • Broken at 4,800' AGL
Temperature
16°C / 61°F
Dewpoint
13°C / 55°F
Humidity
83%
Altimeter
30.19" Hg
Pressure
1022.32 hPa
Previous

39 mins ago

KIMM 240215Z AUTO 00000KT 10SM OVC047 16/12 A3019 RMK AO2
Observed
Mar-24 @ 02:15 UTC
Visibility
10 SM
Flight Rules
VFR
Cloud Levels
  • Overcast at 4,700' AGL
Temperature
16°C / 61°F
Dewpoint
12°C / 54°F
Humidity
77%
Altimeter
30.19" Hg
Pressure
1022.32 hPa
Previous

59 mins ago

KIMM 240155Z AUTO 00000KT 10SM OVC048 16/11 A3019 RMK AO2
Observed
Mar-24 @ 01:55 UTC
Visibility
10 SM
Flight Rules
VFR
Cloud Levels
  • Overcast at 4,800' AGL
Temperature
16°C / 61°F
Dewpoint
11°C / 52°F
Humidity
72%
Altimeter
30.19" Hg
Pressure
1022.32 hPa